Lake Wales, Florida
Current Conditions -  °F | °C
As of 8:15 PM on Saturday 22 Nov 2014 (Local Time) from KBOW Reporting Station
Few Clouds Few Clouds  
Wind Chill: 70°   Ceiling: Unl
Heat Index: 70°   Visibility: 10mi
Dew Point: 70°   Wind: 10mph
Humidity: 100%   Direction: 80°E
Pressure: 30.12"   Gusts: NA
Location:  27.9°N, 81.59°W
Report Text: KBOW 230115Z AUTO 08009KT 10SM FEW010 21/21 A3012 RMK AO2
Loading
Personal Weather Stations






























Interactive Weather Map New forecast layout! Learn more

10-Day Weather Forecast

Advertisements
Track Severe Weather on mobile